createdAt,value
2023-02-12T00:01:15.914Z,31.53
2023-02-12T00:03:42.596Z,32.97
2023-02-12T00:06:10.279Z,30.37
2023-02-12T00:08:38.293Z,33.53
2023-02-12T00:11:14.799Z,31.20
2023-02-12T00:13:41.891Z,31.27
2023-02-12T00:16:11.942Z,31.20
2023-02-12T00:18:38.724Z,32.27
2023-02-12T00:21:08.689Z,32.97
2023-02-12T00:23:38.847Z,31.17
2023-02-12T00:26:14.108Z,28.03
2023-02-12T00:28:41.128Z,31.10
2023-02-12T00:31:13.984Z,31.30
2023-02-12T00:33:40.927Z,30.83
2023-02-12T00:36:09.464Z,32.27
2023-02-12T00:38:36.072Z,32.90
2023-02-12T00:41:02.707Z,29.80
2023-02-12T00:43:29.277Z,29.77
2023-02-12T00:45:56.304Z,28.60
2023-02-12T00:48:23.180Z,30.87
2023-02-12T00:50:50.823Z,31.43
2023-02-12T00:53:17.797Z,34.00
2023-02-12T00:55:44.361Z,31.80
2023-02-12T00:58:11.411Z,30.63
2023-02-12T01:00:38.814Z,28.50
2023-02-12T01:03:05.620Z,30.77
2023-02-12T01:05:32.566Z,28.47
2023-02-12T01:07:59.467Z,32.53
2023-02-12T01:10:26.746Z,31.67
2023-02-12T01:12:53.356Z,33.23
2023-02-12T01:15:20.362Z,33.73
2023-02-12T01:17:47.456Z,32.67
2023-02-12T01:20:17.619Z,31.83
2023-02-12T01:22:44.964Z,31.23
2023-02-12T01:25:12.149Z,32.50
2023-02-12T01:27:39.043Z,34.23
2023-02-12T01:30:07.500Z,30.40
2023-02-12T01:32:34.751Z,34.30
2023-02-12T01:35:01.745Z,35.87
2023-02-12T01:37:28.319Z,34.20
2023-02-12T01:39:54.937Z,34.40
2023-02-12T01:42:21.572Z,36.80
2023-02-12T01:45:30.447Z,33.13
2023-02-12T01:48:00.386Z,32.87
2023-02-12T01:50:27.005Z,32.73
2023-02-12T01:52:56.548Z,32.07
2023-02-12T01:55:23.462Z,30.83
2023-02-12T01:57:50.614Z,32.87
2023-02-12T02:00:22.352Z,33.53
2023-02-12T02:02:53.012Z,30.00
2023-02-12T02:05:31.845Z,33.27
2023-02-12T02:07:59.054Z,31.60
2023-02-12T02:10:25.600Z,30.17
2023-02-12T02:13:11.012Z,33.73
2023-02-12T02:15:39.755Z,32.83
2023-02-12T02:18:12.553Z,33.23
2023-02-12T02:20:51.448Z,32.43
2023-02-12T02:23:52.043Z,30.97
2023-02-12T02:26:46.803Z,33.30
2023-02-12T02:29:31.862Z,32.13
2023-02-12T02:32:18.745Z,32.57
2023-02-12T02:34:53.650Z,32.17
2023-02-12T02:37:29.905Z,30.47
2023-02-12T02:40:00.447Z,30.93
2023-02-12T02:43:03.035Z,33.03
2023-02-12T02:45:38.219Z,30.90
2023-02-12T02:48:26.922Z,31.03
2023-02-12T02:50:59.565Z,31.60
2023-02-12T02:53:33.530Z,35.57
2023-02-12T02:56:03.338Z,32.37
2023-02-12T02:58:41.031Z,29.17
2023-02-12T03:01:19.187Z,36.57
2023-02-12T03:03:59.663Z,31.43
2023-02-12T03:06:34.607Z,32.73
2023-02-12T03:09:09.554Z,33.70
2023-02-12T03:11:36.175Z,33.20
2023-02-12T03:14:36.728Z,27.87
2023-02-12T03:17:23.539Z,29.90
2023-02-12T03:20:38.873Z,34.67
2023-02-12T03:23:15.175Z,35.13
2023-02-12T03:25:57.078Z,31.47
2023-02-12T03:28:33.453Z,31.20
2023-02-12T03:31:16.494Z,33.70
2023-02-12T03:34:21.029Z,31.50
2023-02-12T03:37:00.943Z,30.65
2023-02-12T03:39:56.759Z,27.43
2023-02-12T03:42:38.596Z,29.53
2023-02-12T03:45:24.072Z,32.97
2023-02-12T03:48:08.744Z,30.67
2023-02-12T03:51:03.822Z,30.30
2023-02-12T03:53:32.248Z,28.30
2023-02-12T03:56:09.755Z,30.90
2023-02-12T03:58:38.623Z,29.80
2023-02-12T04:01:05.888Z,33.30
2023-02-12T04:03:33.805Z,28.90
2023-02-12T04:06:00.435Z,29.83
2023-02-12T04:08:28.204Z,26.73
2023-02-12T04:11:27.166Z,29.40
2023-02-12T04:14:14.982Z,27.87
2023-02-12T04:16:46.164Z,30.55
2023-02-12T04:19:20.305Z,33.63
2023-02-12T04:22:14.351Z,34.37
2023-02-12T04:24:55.462Z,32.80
2023-02-12T04:27:34.352Z,33.87
2023-02-12T04:30:24.984Z,33.40
2023-02-12T04:33:00.687Z,34.33
2023-02-12T04:35:31.482Z,36.93
2023-02-12T04:38:09.927Z,34.67
2023-02-12T04:40:40.122Z,37.37
2023-02-12T04:43:06.800Z,35.90
2023-02-12T04:45:35.631Z,36.10
2023-02-12T04:48:03.047Z,34.30
2023-02-12T04:50:39.665Z,37.08
2023-02-12T04:53:06.531Z,37.13
2023-02-12T04:55:33.147Z,37.83
2023-02-12T04:57:59.733Z,35.93
2023-02-12T05:00:26.866Z,37.60
2023-02-12T05:02:53.518Z,37.37
2023-02-12T05:05:20.334Z,37.30
2023-02-12T05:07:46.894Z,35.70
2023-02-12T05:10:13.522Z,36.57
2023-02-12T05:12:40.157Z,34.73
2023-02-12T05:15:07.163Z,36.37
2023-02-12T05:17:33.760Z,37.27
2023-02-12T05:20:00.325Z,35.43
2023-02-12T05:22:26.943Z,35.93
2023-02-12T05:24:53.534Z,36.20
2023-02-12T05:27:20.098Z,36.03
2023-02-12T05:29:46.636Z,37.75
2023-02-12T05:32:13.295Z,39.73
2023-02-12T05:34:40.088Z,34.00
2023-02-12T05:37:06.685Z,35.33
2023-02-12T05:39:33.249Z,38.57
2023-02-12T05:41:59.800Z,34.20
2023-02-12T05:44:26.389Z,39.63
2023-02-12T05:46:52.927Z,35.33
2023-02-12T05:49:19.807Z,36.37
2023-02-12T05:51:46.372Z,35.73
2023-02-12T05:54:13.044Z,34.93
2023-02-12T05:56:46.177Z,35.60
2023-02-12T05:59:16.918Z,37.67
2023-02-12T06:01:44.821Z,38.10
2023-02-12T06:04:17.211Z,37.97
2023-02-12T06:06:44.695Z,36.53
2023-02-12T06:09:13.353Z,39.63
2023-02-12T06:11:40.531Z,39.83
2023-02-12T06:14:09.338Z,35.43
2023-02-12T06:16:36.051Z,37.07
2023-02-12T06:19:05.390Z,40.00
2023-02-12T06:21:33.375Z,41.27
2023-02-12T06:24:00.378Z,37.20
2023-02-12T06:26:27.590Z,37.73
2023-02-12T06:28:54.687Z,36.97
2023-02-12T06:31:30.595Z,37.80
2023-02-12T06:34:00.117Z,38.23
2023-02-12T06:36:26.750Z,38.83
2023-02-12T06:38:53.469Z,37.27
2023-02-12T06:41:20.796Z,39.27
2023-02-12T06:43:47.700Z,35.67
2023-02-12T06:46:14.924Z,34.83
2023-02-12T06:48:41.865Z,38.27
2023-02-12T06:51:10.033Z,35.80
2023-02-12T06:53:36.892Z,38.33
2023-02-12T06:56:11.269Z,39.00
2023-02-12T06:58:39.325Z,35.13
2023-02-12T07:01:18.029Z,35.60
2023-02-12T07:03:48.840Z,37.60
2023-02-12T07:06:15.560Z,37.10
2023-02-12T07:08:42.177Z,36.90
2023-02-12T07:11:09.259Z,38.13
2023-02-12T07:13:36.032Z,36.37
2023-02-12T07:16:14.761Z,36.53
2023-02-12T07:18:42.938Z,34.97
2023-02-12T07:21:11.158Z,34.80
2023-02-12T07:23:38.088Z,36.07
2023-02-12T07:26:11.305Z,33.20
2023-02-12T07:28:38.242Z,33.67
2023-02-12T07:31:12.830Z,34.07
2023-02-12T07:33:40.909Z,34.43
2023-02-12T07:36:11.255Z,38.27
2023-02-12T07:38:39.654Z,38.63
2023-02-12T07:41:16.653Z,37.97
2023-02-12T07:43:45.656Z,33.23
2023-02-12T07:46:17.041Z,35.33
2023-02-12T07:48:44.700Z,33.27
2023-02-12T07:51:15.057Z,34.37
2023-02-12T07:53:42.188Z,34.43
2023-02-12T07:56:15.424Z,36.57
2023-02-12T07:58:45.052Z,32.57
2023-02-12T08:01:12.393Z,34.57
2023-02-12T08:03:39.242Z,33.83
2023-02-12T08:06:10.959Z,35.73
2023-02-12T08:08:38.841Z,35.33
2023-02-12T08:11:07.729Z,37.30
2023-02-12T08:13:35.781Z,34.33
2023-02-12T08:16:04.615Z,35.07
2023-02-12T08:18:35.032Z,37.03
2023-02-12T08:21:06.371Z,38.53
2023-02-12T08:23:34.023Z,37.03
2023-02-12T08:26:09.228Z,34.03
2023-02-12T08:28:36.891Z,38.10
2023-02-12T08:31:06.414Z,38.53
2023-02-12T08:33:33.103Z,36.37
2023-02-12T08:36:09.528Z,38.60
2023-02-12T08:38:36.418Z,35.63
2023-02-12T08:41:09.469Z,36.97
2023-02-12T08:43:36.733Z,36.67
2023-02-12T08:46:09.272Z,36.43
2023-02-12T08:48:36.001Z,38.13
2023-02-12T08:51:09.107Z,42.57
2023-02-12T08:53:37.103Z,36.90
2023-02-12T08:56:04.207Z,38.93
2023-02-12T08:58:31.041Z,36.40
2023-02-12T09:00:57.630Z,36.73
2023-02-12T09:03:24.860Z,41.30
2023-02-12T09:05:51.618Z,41.83
2023-02-12T09:08:18.356Z,42.37
2023-02-12T09:10:45.666Z,38.67
2023-02-12T09:13:14.031Z,41.17
2023-02-12T09:15:44.950Z,43.30
2023-02-12T09:18:13.545Z,38.20
2023-02-12T09:20:42.649Z,38.70
2023-02-12T09:23:14.201Z,39.40
2023-02-12T09:25:45.078Z,41.00
2023-02-12T09:28:13.937Z,37.97
2023-02-12T09:30:41.201Z,39.57
2023-02-12T09:33:09.846Z,38.17
2023-02-12T09:35:37.590Z,37.07
2023-02-12T09:38:05.589Z,35.20
2023-02-12T09:41:07.163Z,35.10
2023-02-12T09:43:52.841Z,36.80
2023-02-12T09:46:24.082Z,35.23
2023-02-12T09:49:23.540Z,36.43
2023-02-12T09:51:53.897Z,34.73
2023-02-12T09:54:29.104Z,38.47
2023-02-12T09:57:00.090Z,33.10
2023-02-12T09:59:33.483Z,35.33
2023-02-12T10:02:00.188Z,34.77
2023-02-12T10:04:28.782Z,30.90
2023-02-12T10:07:07.928Z,30.60
2023-02-12T10:09:58.520Z,26.53
2023-02-12T10:12:54.207Z,27.90
2023-02-12T10:15:45.465Z,28.37
2023-02-12T10:18:37.482Z,28.33
2023-02-12T10:21:10.769Z,31.60
2023-02-12T10:24:19.990Z,31.53
2023-02-12T10:26:52.177Z,29.27
2023-02-12T10:29:24.894Z,26.07
2023-02-12T10:32:07.833Z,24.70
2023-02-12T10:34:36.920Z,28.07
2023-02-12T10:37:32.544Z,22.90
2023-02-12T10:40:06.005Z,22.07
2023-02-12T10:42:40.829Z,20.83
2023-02-12T10:45:14.233Z,21.47
2023-02-12T10:47:40.835Z,22.90
2023-02-12T10:50:24.017Z,20.23
2023-02-12T10:52:55.929Z,21.80
2023-02-12T10:55:31.317Z,22.27
2023-02-12T10:57:59.443Z,21.80
2023-02-12T11:00:35.892Z,21.70
2023-02-12T11:03:21.322Z,24.50
2023-02-12T11:05:48.297Z,24.53
2023-02-12T11:08:33.727Z,20.33
2023-02-12T11:11:19.025Z,20.57
2023-02-12T11:14:16.197Z,21.33
2023-02-12T11:17:02.538Z,19.40
2023-02-12T11:19:31.293Z,20.37
2023-02-12T11:22:18.881Z,20.40
2023-02-12T11:24:46.983Z,21.40
2023-02-12T11:27:21.979Z,22.03
2023-02-12T11:30:07.416Z,26.10
2023-02-12T11:32:34.051Z,19.40
2023-02-12T11:35:23.613Z,17.93
2023-02-12T11:37:51.860Z,18.60
2023-02-12T11:40:26.000Z,12.47
2023-02-12T11:43:02.374Z,9.67
2023-02-12T11:45:46.273Z,9.90
2023-02-12T11:48:21.317Z,9.83
2023-02-12T11:50:50.941Z,10.70
2023-02-12T11:53:42.112Z,8.87
2023-02-12T11:56:12.010Z,9.10
2023-02-12T11:58:39.179Z,8.43
2023-02-12T12:01:30.043Z,9.23
2023-02-12T12:04:13.987Z,9.87
2023-02-12T12:06:48.801Z,8.50
2023-02-12T12:09:26.585Z,8.37
2023-02-12T12:12:21.927Z,9.37
2023-02-12T12:15:16.329Z,7.23
2023-02-12T12:18:19.002Z,9.10
2023-02-12T12:20:56.858Z,8.17
2023-02-12T12:23:35.179Z,7.80
2023-02-12T12:26:10.656Z,8.33
2023-02-12T12:28:47.779Z,9.00
2023-02-12T12:31:19.398Z,7.80
2023-02-12T12:34:07.350Z,9.00
2023-02-12T12:37:04.752Z,8.43
2023-02-12T12:39:45.875Z,8.40
2023-02-12T12:42:37.229Z,8.03
2023-02-12T12:45:18.971Z,8.67
2023-02-12T12:48:09.250Z,8.50
2023-02-12T12:51:00.525Z,8.50
2023-02-12T12:53:36.788Z,8.47
2023-02-12T12:56:27.563Z,8.80
2023-02-12T12:59:32.118Z,8.63
2023-02-12T13:02:38.223Z,8.83
2023-02-12T13:05:34.203Z,8.70
2023-02-12T13:08:15.833Z,10.03
2023-02-12T13:11:02.275Z,8.43
2023-02-12T13:13:39.672Z,8.53
2023-02-12T13:16:23.064Z,14.03
2023-02-12T13:19:06.536Z,8.00
2023-02-12T13:21:54.801Z,7.50
2023-02-12T13:24:37.126Z,6.77
2023-02-12T13:27:19.884Z,7.13
2023-02-12T13:30:19.287Z,7.03
2023-02-12T13:32:57.754Z,8.13
2023-02-12T13:35:28.517Z,7.57
2023-02-12T13:37:56.382Z,9.13
2023-02-12T13:40:26.815Z,7.77
2023-02-12T13:43:36.282Z,8.63
2023-02-12T13:46:33.259Z,8.37
2023-02-12T13:49:32.989Z,8.00
2023-02-12T13:52:14.284Z,6.40
2023-02-12T13:55:00.545Z,9.57
2023-02-12T13:57:28.460Z,6.13
2023-02-12T13:59:58.088Z,7.00
2023-02-12T14:02:36.230Z,8.50
2023-02-12T14:05:15.673Z,6.83
2023-02-12T14:07:51.704Z,8.30
2023-02-12T14:10:40.223Z,6.73
2023-02-12T14:13:22.799Z,5.77
2023-02-12T14:15:55.509Z,6.63
2023-02-12T14:18:33.084Z,6.63
2023-02-12T14:21:22.196Z,7.70
2023-02-12T14:23:51.014Z,4.83
2023-02-12T14:26:23.393Z,4.30
2023-02-12T14:29:02.971Z,5.03
2023-02-12T14:31:36.671Z,4.60
2023-02-12T14:34:06.402Z,5.63
2023-02-12T14:36:32.937Z,4.77
2023-02-12T14:39:01.458Z,5.30
2023-02-12T14:41:38.748Z,5.20
2023-02-12T14:44:17.537Z,5.17
2023-02-12T14:46:54.509Z,4.60
2023-02-12T14:49:30.039Z,4.13
2023-02-12T14:52:07.819Z,4.55
2023-02-12T14:54:42.254Z,4.13
2023-02-12T14:57:33.202Z,3.40
2023-02-12T15:00:20.569Z,4.37
2023-02-12T15:03:18.350Z,3.43
2023-02-12T15:06:02.725Z,3.50
2023-02-12T15:08:41.393Z,3.97
2023-02-12T15:11:17.064Z,3.43
2023-02-12T15:13:58.720Z,3.10
2023-02-12T15:16:34.498Z,3.37
2023-02-12T15:19:28.345Z,3.00
2023-02-12T15:21:55.054Z,2.70
2023-02-12T15:24:25.787Z,3.50
2023-02-12T15:26:58.269Z,3.23
2023-02-12T15:29:29.854Z,3.53
2023-02-12T15:32:02.128Z,3.07
2023-02-12T15:34:32.077Z,3.10
2023-02-12T15:37:01.479Z,4.23
2023-02-12T15:39:32.920Z,3.33
2023-02-12T15:41:59.481Z,2.97
2023-02-12T15:44:31.525Z,3.80
2023-02-12T15:47:13.792Z,3.20
2023-02-12T15:49:41.958Z,3.47
2023-02-12T15:52:16.536Z,2.97
2023-02-12T15:54:45.730Z,4.73
2023-02-12T15:57:18.622Z,3.60
2023-02-12T15:59:53.711Z,3.42
2023-02-12T16:02:25.524Z,3.10
2023-02-12T16:04:52.303Z,3.97
2023-02-12T16:07:19.917Z,4.00
2023-02-12T16:09:48.693Z,3.07
2023-02-12T16:12:20.179Z,3.70
2023-02-12T16:14:59.909Z,3.77
2023-02-12T16:17:29.645Z,3.73
2023-02-12T16:20:02.876Z,3.27
2023-02-12T16:22:41.407Z,3.77
2023-02-12T16:25:30.189Z,3.93
2023-02-12T16:28:05.023Z,5.57
2023-02-12T16:30:34.552Z,3.93
2023-02-12T16:33:02.249Z,3.43
2023-02-12T16:35:31.407Z,4.57
2023-02-12T16:38:02.015Z,6.93
2023-02-12T16:40:34.460Z,5.63
2023-02-12T16:43:22.770Z,5.77
2023-02-12T16:45:49.990Z,4.10
2023-02-12T16:48:26.541Z,3.17
2023-02-12T16:50:59.490Z,3.27
2023-02-12T16:53:33.330Z,5.00
2023-02-12T16:56:01.179Z,4.07
2023-02-12T16:58:28.587Z,3.67
2023-02-12T17:00:57.459Z,5.63
2023-02-12T17:03:24.958Z,4.37
2023-02-12T17:05:52.389Z,5.83
2023-02-12T17:08:22.505Z,5.43
2023-02-12T17:10:49.842Z,5.90
2023-02-12T17:13:17.657Z,6.57
2023-02-12T17:15:55.374Z,5.13
2023-02-12T17:18:23.130Z,4.83
2023-02-12T17:20:54.645Z,5.57
2023-02-12T17:23:21.537Z,6.50
2023-02-12T17:25:48.249Z,6.70
2023-02-12T17:28:15.052Z,7.00
2023-02-12T17:30:42.041Z,6.63
2023-02-12T17:33:09.085Z,6.30
2023-02-12T17:35:37.869Z,6.97
2023-02-12T17:38:04.905Z,8.43
2023-02-12T17:40:31.554Z,9.30
2023-02-12T17:42:59.003Z,9.70
2023-02-12T17:45:25.567Z,8.70
2023-02-12T17:47:52.163Z,8.23
2023-02-12T17:50:18.838Z,8.60
2023-02-12T17:52:46.170Z,9.43
2023-02-12T17:55:14.208Z,10.10
2023-02-12T17:57:41.185Z,9.23
2023-02-12T18:00:11.399Z,10.13
2023-02-12T18:02:38.649Z,9.67
2023-02-12T18:05:05.693Z,8.30
2023-02-12T18:07:33.900Z,9.40
2023-02-12T18:10:00.649Z,8.97
2023-02-12T18:12:27.226Z,9.23
2023-02-12T18:14:58.794Z,9.37
2023-02-12T18:17:25.950Z,9.43
2023-02-12T18:19:53.212Z,10.30
2023-02-12T18:22:20.858Z,10.53
2023-02-12T18:24:47.620Z,9.57
2023-02-12T18:27:15.340Z,11.40
2023-02-12T18:29:42.173Z,11.43
2023-02-12T18:32:08.765Z,12.97
2023-02-12T18:34:35.413Z,10.40
2023-02-12T18:37:01.957Z,11.40
2023-02-12T18:39:29.205Z,12.77
2023-02-12T18:41:55.839Z,14.33
2023-02-12T18:44:22.824Z,12.70
2023-02-12T18:46:49.451Z,15.43
2023-02-12T18:49:16.585Z,11.97
2023-02-12T18:51:43.434Z,13.27
2023-02-12T18:54:14.216Z,14.25
2023-02-12T18:56:44.105Z,13.43
2023-02-12T18:59:13.639Z,15.37
2023-02-12T19:01:40.317Z,15.83
2023-02-12T19:04:09.872Z,13.97
2023-02-12T19:06:42.248Z,15.38
2023-02-12T19:09:09.498Z,15.57
2023-02-12T19:11:36.347Z,14.83
2023-02-12T19:14:03.495Z,13.37
2023-02-12T19:16:30.473Z,12.43
2023-02-12T19:19:02.664Z,14.10
2023-02-12T19:21:30.014Z,12.73
2023-02-12T19:23:59.340Z,12.83
2023-02-12T19:26:28.795Z,10.67
2023-02-12T19:28:56.466Z,13.80
2023-02-12T19:31:26.317Z,14.13
2023-02-12T19:33:59.971Z,24.37
2023-02-12T19:36:29.025Z,17.53
2023-02-12T19:38:55.719Z,17.77
2023-02-12T19:41:24.725Z,16.67
2023-02-12T19:43:55.888Z,23.47
2023-02-12T19:46:22.573Z,22.80
2023-02-12T19:48:49.717Z,21.30
2023-02-12T19:51:21.055Z,25.70
2023-02-12T19:53:48.624Z,25.00
2023-02-12T19:56:16.074Z,24.00
2023-02-12T19:58:43.613Z,20.30
2023-02-12T20:01:16.839Z,19.17
2023-02-12T20:03:44.653Z,18.90
2023-02-12T20:06:14.983Z,18.93
2023-02-12T20:08:43.082Z,19.30
2023-02-12T20:11:13.722Z,16.70
2023-02-12T20:13:41.244Z,15.13
2023-02-12T20:16:15.959Z,20.07
2023-02-12T20:18:44.077Z,22.43
2023-02-12T20:21:13.094Z,27.27
2023-02-12T20:23:40.067Z,29.30
2023-02-12T20:26:09.108Z,60.20
2023-02-12T20:28:36.860Z,24.80
2023-02-12T20:31:18.994Z,24.10
2023-02-12T20:33:46.179Z,23.33
2023-02-12T20:36:13.889Z,21.10
2023-02-12T20:38:44.700Z,22.63
2023-02-12T20:41:11.970Z,19.73
2023-02-12T20:43:39.022Z,21.77
2023-02-12T20:46:06.877Z,22.37
2023-02-12T20:48:33.504Z,22.20
2023-02-12T20:51:05.679Z,23.43
2023-02-12T20:53:32.940Z,26.97
2023-02-12T20:56:05.346Z,23.67
2023-02-12T20:58:32.709Z,22.77
2023-02-12T21:01:23.958Z,21.30
2023-02-12T21:03:53.030Z,20.57
2023-02-12T21:06:21.300Z,20.20
2023-02-12T21:08:48.326Z,18.33
2023-02-12T21:11:18.209Z,21.60
2023-02-12T21:13:58.380Z,21.00
2023-02-12T21:16:32.558Z,19.60
2023-02-12T21:18:59.771Z,26.50
2023-02-12T21:21:31.122Z,23.60
2023-02-12T21:23:59.771Z,21.73
2023-02-12T21:26:29.019Z,20.77
2023-02-12T21:28:57.793Z,27.43
2023-02-12T21:31:28.230Z,30.43
2023-02-12T21:33:56.592Z,22.33
2023-02-12T21:36:29.197Z,22.43
2023-02-12T21:38:57.193Z,22.57
2023-02-12T21:41:25.055Z,24.02
2023-02-12T21:43:57.615Z,21.73
2023-02-12T21:46:24.392Z,19.67
2023-02-12T21:48:51.299Z,23.33
2023-02-12T21:51:30.077Z,21.50
2023-02-12T21:53:59.690Z,22.00
2023-02-12T21:56:27.324Z,24.47
2023-02-12T21:58:54.923Z,18.93
2023-02-12T22:01:29.878Z,22.20
2023-02-12T22:03:56.485Z,21.53
2023-02-12T22:06:24.646Z,23.13
2023-02-12T22:08:55.376Z,21.20
2023-02-12T22:11:22.790Z,24.50
2023-02-12T22:13:49.871Z,22.30
2023-02-12T22:16:26.666Z,21.03
2023-02-12T22:18:55.541Z,21.57
2023-02-12T22:21:23.873Z,21.80
2023-02-12T22:23:52.889Z,21.90
2023-02-12T22:26:23.181Z,22.23
2023-02-12T22:28:55.877Z,22.70
2023-02-12T22:31:25.866Z,24.37
2023-02-12T22:33:55.535Z,22.30
2023-02-12T22:36:24.957Z,23.70
2023-02-12T22:38:53.317Z,19.93
2023-02-12T22:41:20.692Z,23.70
2023-02-12T22:43:47.676Z,22.57
2023-02-12T22:46:15.659Z,23.83
2023-02-12T22:48:42.717Z,25.30
2023-02-12T22:51:17.604Z,25.90
2023-02-12T22:53:44.258Z,24.47
2023-02-12T22:56:11.153Z,25.63
2023-02-12T22:58:39.505Z,26.87
2023-02-12T23:01:13.523Z,28.00
2023-02-12T23:03:41.014Z,25.80
2023-02-12T23:06:11.644Z,25.53
2023-02-12T23:08:38.512Z,25.07
2023-02-12T23:11:07.192Z,29.90
2023-02-12T23:13:36.026Z,32.33
2023-02-12T23:16:03.098Z,30.00
2023-02-12T23:18:30.121Z,30.07
2023-02-12T23:20:57.070Z,32.03
2023-02-12T23:23:24.192Z,26.83
2023-02-12T23:25:50.873Z,28.33
2023-02-12T23:28:17.692Z,24.33
2023-02-12T23:30:44.407Z,27.67
2023-02-12T23:33:11.158Z,23.33
2023-02-12T23:35:38.457Z,23.13
2023-02-12T23:38:05.399Z,22.63
2023-02-12T23:40:33.437Z,21.83
2023-02-12T23:43:00.177Z,21.57
2023-02-12T23:45:28.032Z,22.73
2023-02-12T23:47:54.881Z,22.17
2023-02-12T23:50:22.218Z,25.80
2023-02-12T23:52:49.203Z,24.93
2023-02-12T23:55:16.296Z,23.50
2023-02-12T23:57:42.835Z,24.93
